This is the latest recevied weather packets stored in our database for station/object ON7MOR-11. If no packets are shown the sender has not sent any weather packets the latest 10 day(s).
| Time | Temp. | Humidity | Pressure | Rain* | Wind** | Luminosity | Snow |
|---|---|---|---|---|---|---|---|
| 1777667274 | 21.67° C | 34% | 1021.6 hPa | - | - | - | - |
| 1777660076 | 22.78° C | 32% | 1021.3 hPa | - | - | - | - |
| 1777659176 | 22.78° C | 31% | 1021.3 hPa | - | - | - | - |
| 1777658276 | 23.33° C | 31% | 1021.3 hPa | - | - | - | - |
| 1777656476 | 23.33° C | 29% | 1021.3 hPa | - | - | - | - |
| 1777655576 | 23.33° C | 30% | 1021.2 hPa | - | - | - | - |
| 1777652875 | 23.33° C | 28% | 1021.5 hPa | - | - | - | - |
| 1777651975 | 23.33° C | 25% | 1021.5 hPa | - | - | - | - |
| 1777651075 | 23.33° C | 24% | 1021.7 hPa | - | - | - | - |
| 1777649275 | 22.78° C | 25% | 1021.8 hPa | - | - | - | - |
| 1777648375 | 22.78° C | 27% | 1022 hPa | - | - | - | - |
| 1777647474 | 22.78° C | 24% | 1022.1 hPa | - | - | - | - |
| 1777645673 | 22.78° C | 22% | 1022.4 hPa | - | - | - | - |
| 1777644773 | 22.22° C | 23% | 1022.5 hPa | - | - | - | - |
| 1777643873 | 22.22° C | 25% | 1022.6 hPa | - | - | - | - |
| 1777642075 | 22.22° C | 22% | 1022.9 hPa | - | - | - | - |
| 1777641181 | 21.67° C | 24% | 1023 hPa | - | - | - | - |
| 1777640277 | 21.67° C | 24% | 1023.2 hPa | - | - | - | - |
| 1777638475 | 21.11° C | 22% | 1023.4 hPa | - | - | - | - |
| 1777637575 | 21.11° C | 24% | 1023.6 hPa | - | - | - | - |
| 1777636675 | 21.11° C | 22% | 1023.6 hPa | - | - | - | - |
| 1777635775 | 20.56° C | 23% | 1023.9 hPa | - | - | - | - |
| 1777634875 | 20.56° C | 25% | 1024.2 hPa | - | - | - | - |
| 1777633974 | 20.56° C | 27% | 1024.3 hPa | - | - | - | - |
| 1777633074 | 20.56° C | 26% | 1024.4 hPa | - | - | - | - |
* Rain since midnight (hover to see other rain measurements)
** Current wind speed in m/s (hover to see current wind gust speed)